Time;durP1;ratioP1;P1;durP2;ratioP2;P2;SDS_P1;SDS_P2;PMS_P1;PMS_P2;Temp;Humidity;BMP_temperature;BMP_pressure;BME280_temperature;BME280_humidity;BME280_pressure;Samples;Min_cycle;Max_cycle;Signal;HPM_P1;HPM_P2
2022/08/10 00:00:20;;;;;;;4.25;2.30;;;;;;;19.66;68.25;101714.44;690190;28;1270;-44
2022/08/10 00:00:40;;;;;;;3.33;2.20;;;;;;;19.65;68.37;101714.50;690592;28;1119;-44
2022/08/10 00:01:01;;;;;;;5.15;2.40;;;;;;;19.68;68.61;101717.06;689402;28;4411;-44
2022/08/10 00:01:21;;;;;;;4.97;2.53;;;;;;;19.71;69.46;101711.66;690730;28;1120;-44
2022/08/10 00:01:41;;;;;;;4.35;2.60;;;;;;;19.77;68.95;101715.94;690177;28;1060;-44
2022/08/10 00:02:02;;;;;;;4.43;2.60;;;;;;;19.74;68.65;101719.53;690618;28;1228;-45
2022/08/10 00:02:22;;;;;;;5.07;2.60;;;;;;;19.72;68.76;101713.41;689982;28;1194;-44
2022/08/10 00:02:42;;;;;;;4.38;2.40;;;;;;;19.76;69.36;101716.84;690188;28;1535;-45
2022/08/10 00:03:06;;;;;;;4.40;2.60;;;;;;;19.72;69.09;101714.28;690513;28;1048;-44
2022/08/10 00:03:26;;;;;;;4.00;2.40;;;;;;;19.71;69.05;101714.31;689589;28;1561;-46
2022/08/10 00:03:47;;;;;;;4.23;2.40;;;;;;;19.70;68.53;101716.13;689321;28;1217;-45
2022/08/10 00:04:07;;;;;;;4.63;2.30;;;;;;;19.69;69.21;101713.50;690104;28;4557;-47
2022/08/10 00:04:27;;;;;;;4.60;2.43;;;;;;;19.68;69.49;101715.28;689461;28;1247;-44
2022/08/10 00:04:48;;;;;;;4.10;2.50;;;;;;;19.67;69.40;101710.88;688320;28;1408;-44
2022/08/10 00:05:08;;;;;;;4.28;2.40;;;;;;;19.66;69.67;101711.81;689392;28;1398;-44
2022/08/10 00:05:29;;;;;;;4.33;2.40;;;;;;;19.65;69.36;101718.00;690497;28;1245;-47
2022/08/10 00:05:49;;;;;;;4.05;2.30;;;;;;;19.62;69.63;101718.09;690298;28;1129;-44
2022/08/10 00:06:09;;;;;;;4.43;2.20;;;;;;;19.63;69.43;101709.22;688845;28;1282;-45
2022/08/10 00:06:30;;;;;;;4.53;2.23;;;;;;;19.60;69.01;101709.28;689416;28;1092;-43
2022/08/10 00:06:52;;;;;;;4.07;2.40;;;;;;;19.59;68.72;101715.50;689532;28;1274;-44
2022/08/10 00:07:12;;;;;;;4.65;2.35;;;;;;;19.58;68.93;101711.13;689765;28;4730;-45
2022/08/10 00:07:33;;;;;;;4.97;2.37;;;;;;;19.57;68.91;101712.03;689681;28;1451;-45
2022/08/10 00:07:53;;;;;;;3.97;2.30;;;;;;;19.53;68.88;101716.53;690568;28;1171;-44
2022/08/10 00:08:14;;;;;;;4.60;2.42;;;;;;;19.51;69.00;101712.19;690163;28;1103;-46
2022/08/10 00:08:35;;;;;;;4.60;2.33;;;;;;;19.51;69.57;101712.19;689676;28;1162;-46
2022/08/10 00:08:56;;;;;;;5.35;2.40;;;;;;;19.50;69.84;101713.09;690257;28;1273;-45
2022/08/10 00:09:16;;;;;;;6.25;2.65;;;;;;;19.50;69.73;101710.44;690108;28;1107;-44
2022/08/10 00:09:37;;;;;;;5.00;2.70;;;;;;;19.48;70.70;101712.25;689082;28;1286;-45
2022/08/10 00:09:57;;;;;;;4.53;2.45;;;;;;;19.47;69.88;101706.09;688142;28;4319;-46
2022/08/10 00:10:19;;;;;;;3.80;2.37;;;;;;;19.47;69.72;101713.19;689285;28;1138;-45
2022/08/10 00:10:40;;;;;;;4.40;2.50;;;;;;;19.47;69.09;101715.84;692954;28;2061;-44
2022/08/10 00:11:00;;;;;;;4.63;2.50;;;;;;;19.48;69.66;101712.25;691961;28;1325;-44
2022/08/10 00:11:21;;;;;;;5.18;2.50;;;;;;;19.46;68.93;101711.44;692585;28;1144;-47
2022/08/10 00:11:41;;;;;;;4.27;2.40;;;;;;;19.48;68.73;101709.59;689453;28;1259;-44
2022/08/10 00:12:01;;;;;;;4.23;2.47;;;;;;;19.49;68.98;101711.34;689406;28;1225;-45
2022/08/10 00:12:22;;;;;;;4.32;2.17;;;;;;;19.50;70.16;101713.09;689708;28;2007;-45
2022/08/10 00:12:43;;;;;;;3.33;2.20;;;;;;;19.49;70.01;101708.69;688563;28;1506;-44
2022/08/10 00:13:03;;;;;;;4.45;2.45;;;;;;;19.50;70.61;101715.75;688621;28;4328;-44
2022/08/10 00:13:25;;;;;;;4.63;2.60;;;;;;;19.49;70.45;101712.22;690266;28;1111;-44
2022/08/10 00:13:45;;;;;;;4.55;2.50;;;;;;;19.50;69.43;101718.41;692769;28;1333;-45
2022/08/10 00:14:05;;;;;;;4.50;2.40;;;;;;;19.49;69.11;101712.22;692149;28;1405;-44
2022/08/10 00:14:26;;;;;;;4.27;2.60;;;;;;;19.47;69.07;101707.88;692909;28;1305;-44
2022/08/10 00:14:46;;;;;;;3.90;2.60;;;;;;;19.47;68.59;101706.09;690434;28;1158;-44
2022/08/10 00:15:08;;;;;;;4.70;2.58;;;;;;;19.49;68.57;101700.75;689485;28;1277;-45
2022/08/10 00:15:28;;;;;;;3.75;2.33;;;;;;;19.61;69.15;101711.03;689837;28;1428;-46
2022/08/10 00:15:49;;;;;;;3.83;2.30;;;;;;;19.63;69.22;101708.34;690034;28;1181;-44
2022/08/10 00:16:10;;;;;;;5.90;2.58;;;;;;;19.64;69.37;101710.09;690551;28;4591;-44
2022/08/10 00:16:30;;;;;;;5.43;2.50;;;;;;;19.64;69.07;101715.41;689551;28;1277;-44
2022/08/10 00:16:50;;;;;;;3.70;2.38;;;;;;;19.59;69.39;101718.16;690668;28;1980;-44
2022/08/10 00:17:11;;;;;;;4.60;2.40;;;;;;;19.59;70.11;101712.00;689903;28;1294;-44
2022/08/10 00:17:31;;;;;;;5.53;2.43;;;;;;;19.55;70.27;101711.22;689758;28;1135;-46
2022/08/10 00:17:52;;;;;;;4.80;2.40;;;;;;;19.53;70.23;101713.03;691059;28;1496;-44
2022/08/10 00:18:13;;;;;;;4.65;2.38;;;;;;;19.56;70.42;101707.63;690598;28;1661;-45
2022/08/10 00:18:33;;;;;;;4.45;2.30;;;;;;;19.56;70.09;101708.53;689752;28;1083;-45
2022/08/10 00:18:53;;;;;;;4.13;2.30;;;;;;;19.53;70.75;101710.38;689193;28;4600;-44
2022/08/10 00:19:14;;;;;;;5.07;2.30;;;;;;;19.52;70.99;101713.91;690183;28;1067;-45
2022/08/10 00:19:34;;;;;;;4.80;2.30;;;;;;;19.51;69.94;101709.56;690219;28;3976;-45
2022/08/10 00:19:55;;;;;;;3.87;2.50;;;;;;;19.50;69.60;101713.09;690378;28;1099;-45
2022/08/10 00:20:15;;;;;;;3.85;2.33;;;;;;;19.49;69.57;101708.69;690661;28;1371;-44
2022/08/10 00:20:36;;;;;;;4.93;2.40;;;;;;;19.51;69.75;101712.19;690557;28;1210;-45
2022/08/10 00:20:56;;;;;;;5.78;2.60;;;;;;;19.50;69.45;101710.44;689980;28;1229;-45
2022/08/10 00:21:17;;;;;;;4.60;2.30;;;;;;;19.49;69.15;101704.25;689571;28;1182;-44
2022/08/10 00:21:37;;;;;;;4.35;2.35;;;;;;;19.48;69.13;101707.84;688754;28;1092;-45
2022/08/10 00:21:57;;;;;;;5.30;2.73;;;;;;;19.46;68.86;101707.00;690060;28;4626;-44
2022/08/10 00:22:18;;;;;;;4.72;2.80;;;;;;;19.45;69.01;101709.69;690364;28;1249;-45
2022/08/10 00:22:38;;;;;;;4.33;2.37;;;;;;;19.48;68.61;101709.59;691200;28;1111;-45
2022/08/10 00:22:59;;;;;;;3.85;2.22;;;;;;;19.44;69.73;101705.28;689448;28;1227;-44
2022/08/10 00:23:19;;;;;;;3.90;2.40;;;;;;;19.45;69.74;101709.69;690305;28;1150;-44
2022/08/10 00:23:40;;;;;;;3.55;2.28;;;;;;;19.45;69.78;101704.38;692744;28;1246;-44
2022/08/10 00:24:00;;;;;;;4.00;2.33;;;;;;;19.42;69.75;101707.13;693293;28;1012;-44
2022/08/10 00:24:21;;;;;;;3.80;2.40;;;;;;;19.41;69.20;101706.22;692607;28;1211;-44
2022/08/10 00:24:41;;;;;;;4.47;2.40;;;;;;;19.40;70.01;101710.66;692440;28;1293;-45
2022/08/10 00:25:02;;;;;;;5.17;2.50;;;;;;;19.43;69.22;101700.91;690921;28;4370;-44
2022/08/10 00:25:23;;;;;;;5.15;2.67;;;;;;;19.41;69.22;101706.22;691557;28;1341;-44
2022/08/10 00:25:43;;;;;;;4.03;2.57;;;;;;;19.45;69.35;101710.53;689947;28;1258;-44
2022/08/10 00:26:05;;;;;;;4.47;2.45;;;;;;;19.46;69.08;101707.00;686865;28;1292;-44
2022/08/10 00:26:25;;;;;;;4.40;2.33;;;;;;;19.45;69.42;101709.69;687695;28;1145;-46
2022/08/10 00:26:46;;;;;;;4.25;2.50;;;;;;;19.43;69.38;101704.44;687538;28;1402;-45
2022/08/10 00:27:06;;;;;;;4.37;2.67;;;;;;;19.44;69.50;101711.47;686153;28;1019;-45
2022/08/10 00:27:28;;;;;;;5.33;2.50;;;;;;;19.42;69.24;101705.34;687795;28;1311;-45
2022/08/10 00:27:48;;;;;;;4.38;2.50;;;;;;;19.45;70.58;101713.19;686703;28;1515;-45
2022/08/10 00:28:09;;;;;;;6.03;2.50;;;;;;;19.51;69.72;101712.19;687243;28;4486;-44
2022/08/10 00:28:29;;;;;;;5.37;2.50;;;;;;;19.50;69.53;101708.66;686338;28;1095;-44
2022/08/10 00:28:49;;;;;;;4.60;2.60;;;;;;;19.50;69.80;101713.97;686888;28;1516;-45
2022/08/10 00:29:10;;;;;;;5.10;2.30;;;;;;;19.49;70.37;101706.03;691446;28;1146;-44
2022/08/10 00:29:30;;;;;;;4.30;2.40;;;;;;;19.48;69.82;101704.31;690688;28;1365;-44
2022/08/10 00:29:51;;;;;;;4.03;2.40;;;;;;;19.46;69.89;101711.44;690000;28;1278;-45
2022/08/10 00:30:12;;;;;;;4.85;2.33;;;;;;;19.47;70.79;101710.53;693217;28;1365;-46
2022/08/10 00:30:33;;;;;;;4.15;2.40;;;;;;;19.46;70.37;101708.78;692872;28;1373;-47
2022/08/10 00:30:53;;;;;;;4.03;2.30;;;;;;;19.45;70.49;101713.19;691437;28;4383;-44
2022/08/10 00:31:13;;;;;;;5.18;2.30;;;;;;;19.44;70.67;101710.59;692140;28;1068;-44
2022/08/10 00:31:34;;;;;;;5.07;2.47;;;;;;;19.44;70.52;101721.19;693254;28;1287;-46
2022/08/10 00:31:55;;;;;;;4.50;2.30;;;;;;;19.42;70.33;101705.34;690092;28;1060;-45
2022/08/10 00:32:15;;;;;;;4.70;2.50;;;;;;;19.40;69.28;101710.66;690337;28;1064;-45
2022/08/10 00:32:35;;;;;;;4.63;2.57;;;;;;;19.38;69.58;101709.84;688934;28;1946;-45
2022/08/10 00:32:56;;;;;;;3.77;2.40;;;;;;;19.38;69.51;101708.97;690538;28;1080;-44
2022/08/10 00:33:16;;;;;;;4.30;2.50;;;;;;;19.35;70.11;101699.31;690580;28;1056;-44
2022/08/10 00:33:36;;;;;;;4.10;2.50;;;;;;;19.34;70.07;101710.84;687825;28;1630;-44
2022/08/10 00:33:57;;;;;;;4.90;2.33;;;;;;;19.34;69.89;101712.59;689990;28;4545;-43
2022/08/10 00:34:17;;;;;;;3.57;2.23;;;;;;;19.33;69.46;101701.13;689662;28;1120;-45
2022/08/10 00:34:37;;;;;;;4.67;2.47;;;;;;;19.32;69.45;101701.19;689497;28;1263;-45
2022/08/10 00:34:58;;;;;;;4.80;2.53;;;;;;;19.32;69.07;101701.19;690469;28;1247;-45
2022/08/10 00:35:18;;;;;;;3.77;2.20;;;;;;;19.31;70.05;101705.59;690468;28;1322;-48
2022/08/10 00:35:39;;;;;;;3.70;2.30;;;;;;;19.38;70.34;101707.22;690545;28;1308;-44
2022/08/10 00:35:59;;;;;;;5.43;2.60;;;;;;;19.38;70.49;101709.84;690180;28;1218;-45
2022/08/10 00:36:19;;;;;;;4.97;2.60;;;;;;;19.37;70.52;101704.56;690447;28;1207;-45
2022/08/10 00:36:40;;;;;;;4.65;2.65;;;;;;;19.36;70.60;101701.06;691289;28;1230;-47
2022/08/10 00:37:00;;;;;;;3.97;2.60;;;;;;;19.34;70.46;101704.66;689458;28;4414;-44
2022/08/10 00:37:21;;;;;;;5.38;2.50;;;;;;;19.33;69.88;101708.22;688989;28;2216;-46
2022/08/10 00:37:43;;;;;;;3.57;2.30;;;;;;;19.31;70.36;101702.94;689257;28;841;-45
2022/08/10 00:38:04;;;;;;;4.38;2.60;;;;;;;19.29;70.68;101704.78;689411;28;1318;-47
2022/08/10 00:38:24;;;;;;;4.70;2.80;;;;;;;19.27;69.77;101701.28;690471;28;1466;-45
2022/08/10 00:38:45;;;;;;;4.63;2.50;;;;;;;19.26;69.46;101699.56;689771;28;1399;-44
2022/08/10 00:39:05;;;;;;;4.43;2.40;;;;;;;19.28;70.73;101707.47;690763;28;911;-45
2022/08/10 00:39:27;;;;;;;4.53;2.30;;;;;;;19.26;69.83;101704.84;690500;28;1243;-44
2022/08/10 00:39:48;;;;;;;4.00;2.35;;;;;;;19.26;70.07;101702.22;691275;28;1207;-44
2022/08/10 00:40:09;;;;;;;4.37;2.37;;;;;;;19.27;70.96;101700.41;688810;28;4345;-44
2022/08/10 00:40:29;;;;;;;5.40;2.50;;;;;;;19.23;70.89;101702.25;690636;28;1337;-46
2022/08/10 00:40:49;;;;;;;5.13;2.55;;;;;;;19.22;70.37;101703.19;690775;28;1321;-44
2022/08/10 00:41:10;;;;;;;3.83;2.40;;;;;;;19.21;70.08;101704.94;690143;28;1289;-45
2022/08/10 00:41:30;;;;;;;4.30;2.37;;;;;;;19.21;70.92;101693.50;689771;28;1445;-44
2022/08/10 00:41:51;;;;;;;4.03;2.50;;;;;;;19.23;70.25;101696.94;690804;28;4613;-46
2022/08/10 00:42:14;;;;;;;4.03;2.50;;;;;;;19.21;70.15;101696.13;690149;28;1230;-45
2022/08/10 00:42:34;;;;;;;4.45;2.55;;;;;;;19.19;69.82;101696.19;692445;28;1246;-45
2022/08/10 00:42:55;;;;;;;3.80;2.50;;;;;;;19.20;71.45;101697.03;692666;28;4328;-44
2022/08/10 00:43:15;;;;;;;3.80;2.50;;;;;;;19.19;70.03;101703.25;692888;28;1174;-46
2022/08/10 00:43:35;;;;;;;4.07;2.42;;;;;;;19.17;70.76;101695.31;689994;28;1232;-44
2022/08/10 00:43:56;;;;;;;5.87;2.40;;;;;;;19.18;70.16;101706.81;690852;28;1064;-43
2022/08/10 00:44:16;;;;;;;5.72;2.60;;;;;;;19.19;69.32;101704.13;689662;28;1203;-45
2022/08/10 00:44:38;;;;;;;5.13;2.70;;;;;;;19.19;69.94;101692.63;686985;28;1365;-46
2022/08/10 00:44:59;;;;;;;4.82;2.70;;;;;;;19.19;69.99;101701.47;688885;28;1294;-45
2022/08/10 00:45:19;;;;;;;4.60;2.75;;;;;;;19.19;70.68;101693.53;687937;28;1183;-46
2022/08/10 00:45:40;;;;;;;4.53;2.53;;;;;;;19.19;70.11;101695.28;687967;28;1251;-46
2022/08/10 00:46:00;;;;;;;4.68;2.50;;;;;;;19.18;69.76;101697.06;687853;28;4569;-46
2022/08/10 00:46:20;;;;;;;3.97;2.50;;;;;;;19.20;69.54;101694.38;688818;28;1168;-45
2022/08/10 00:46:41;;;;;;;4.83;2.53;;;;;;;19.19;69.48;101701.47;691214;28;1395;-47
2022/08/10 00:47:01;;;;;;;5.07;2.60;;;;;;;19.20;69.54;101697.03;690118;28;1431;-44
2022/08/10 00:47:22;;;;;;;5.13;2.50;;;;;;;19.21;69.78;101691.69;690297;28;1443;-45
2022/08/10 00:47:42;;;;;;;3.95;2.58;;;;;;;19.23;69.79;101687.25;687374;28;1085;-46
2022/08/10 00:48:06;;;;;;;4.45;2.60;;;;;;;19.23;69.65;101689.00;686786;28;1322;-45
2022/08/10 00:48:28;;;;;;;5.20;2.63;;;;;;;19.22;70.14;101700.53;685957;28;1289;-44
2022/08/10 00:48:48;;;;;;;4.75;2.83;;;;;;;19.21;69.42;101697.00;686934;28;1389;-45
2022/08/10 00:49:09;;;;;;;4.60;2.70;;;;;;;19.19;69.20;101688.22;687085;28;4508;-45
2022/08/10 00:49:29;;;;;;;4.60;2.50;;;;;;;19.18;69.33;101691.78;689747;28;1330;-45
2022/08/10 00:49:50;;;;;;;3.80;2.40;;;;;;;19.17;69.09;101694.47;689389;28;1171;-44
2022/08/10 00:50:10;;;;;;;4.00;2.40;;;;;;;19.17;69.30;101695.31;689884;28;1222;-45
2022/08/10 00:50:30;;;;;;;4.10;2.40;;;;;;;19.16;69.92;101695.38;689868;28;1393;-45
2022/08/10 00:50:51;;;;;;;5.10;2.50;;;;;;;19.15;70.46;101694.50;688861;28;1258;-44
2022/08/10 00:51:11;;;;;;;5.23;3.00;;;;;;;19.17;69.65;101692.69;689824;28;1369;-45
2022/08/10 00:51:33;;;;;;;5.00;2.60;;;;;;;19.19;70.07;101692.63;689300;28;1411;-44
2022/08/10 00:51:53;;;;;;;4.53;2.50;;;;;;;19.18;69.75;101693.56;688543;28;4530;-45
2022/08/10 00:52:16;;;;;;;4.40;2.47;;;;;;;19.17;69.49;101697.13;688952;28;1123;-44
2022/08/10 00:52:37;;;;;;;4.78;2.78;;;;;;;19.15;70.23;101690.97;689686;28;1975;-44
2022/08/10 00:52:58;;;;;;;5.25;2.63;;;;;;;19.15;69.56;101691.88;689439;28;1219;-46
2022/08/10 00:53:18;;;;;;;3.83;2.40;;;;;;;19.15;69.33;101690.97;690591;28;1210;-45
2022/08/10 00:53:39;;;;;;;4.20;2.50;;;;;;;19.14;69.12;101694.56;688800;28;1211;-44
2022/08/10 00:53:59;;;;;;;4.00;2.50;;;;;;;19.16;69.02;101692.72;690255;28;1155;-44
2022/08/10 00:54:20;;;;;;;3.75;2.60;;;;;;;19.14;69.16;101694.56;689738;28;1064;-44
2022/08/10 00:54:43;;;;;;;3.90;2.60;;;;;;;19.13;69.25;101698.97;689505;28;1286;-45
2022/08/10 00:55:05;;;;;;;5.60;2.67;;;;;;;19.13;69.84;101695.44;689271;28;4619;-44
2022/08/10 00:55:25;;;;;;;4.32;2.58;;;;;;;19.12;70.06;101691.06;690222;28;1100;-45
2022/08/10 00:55:46;;;;;;;4.40;2.50;;;;;;;19.12;69.82;101693.69;688323;28;1266;-44
2022/08/10 00:56:07;;;;;;;4.35;2.53;;;;;;;19.12;69.85;101691.06;689558;28;1278;-46
2022/08/10 00:56:28;;;;;;;3.80;2.50;;;;;;;19.12;70.41;101699.00;687893;28;1467;-46
2022/08/10 00:56:48;;;;;;;4.60;2.63;;;;;;;19.11;70.57;101697.28;689192;28;1306;-44
2022/08/10 00:57:09;;;;;;;3.70;2.70;;;;;;;19.11;70.78;101699.94;689025;28;1084;-46
2022/08/10 00:57:31;;;;;;;4.15;2.65;;;;;;;19.10;69.92;101695.53;688987;28;1239;-45
2022/08/10 00:57:52;;;;;;;5.40;2.63;;;;;;;19.10;70.23;101692.88;689635;28;1624;-45
2022/08/10 00:58:12;;;;;;;3.73;2.60;;;;;;;19.10;70.12;101698.19;689335;28;4323;-45
2022/08/10 00:58:33;;;;;;;4.18;2.60;;;;;;;19.10;70.26;101700.84;689539;28;1377;-44
2022/08/10 00:58:54;;;;;;;4.78;2.70;;;;;;;19.10;70.36;101700.84;687920;28;1322;-46
2022/08/10 00:59:15;;;;;;;4.45;2.75;;;;;;;19.10;70.90;101695.53;687905;28;1277;-45
2022/08/10 00:59:35;;;;;;;4.40;2.67;;;;;;;19.08;70.82;101695.56;687387;28;1295;-46
2022/08/10 00:59:56;;;;;;;5.30;2.70;;;;;;;19.10;70.60;101700.84;687535;28;1489;-45
2022/08/10 01:00:16;;;;;;;4.53;2.58;;;;;;;19.09;70.75;101696.44;688232;28;1172;-47
2022/08/10 01:00:38;;;;;;;4.27;2.57;;;;;;;19.09;70.38;101693.78;690487;28;1144;-44
2022/08/10 01:00:58;;;;;;;5.15;2.50;;;;;;;19.08;70.43;101694.69;688669;28;4468;-46
2022/08/10 01:01:19;;;;;;;5.43;2.40;;;;;;;19.05;70.49;101701.81;690251;28;1202;-44
2022/08/10 01:01:39;;;;;;;4.50;2.60;;;;;;;19.04;70.45;101699.19;689282;28;1056;-45
2022/08/10 01:02:00;;;;;;;4.40;2.43;;;;;;;19.02;70.42;101696.59;689271;28;1174;-44
2022/08/10 01:02:21;;;;;;;4.00;2.60;;;;;;;19.00;70.43;101697.53;688743;28;1131;-44
2022/08/10 01:02:41;;;;;;;3.70;2.42;;;;;;;19.00;70.13;101698.41;689264;28;1230;-44
2022/08/10 01:03:02;;;;;;;3.93;2.47;;;;;;;19.00;70.17;101695.75;689440;28;1198;-44
2022/08/10 01:03:22;;;;;;;5.15;2.53;;;;;;;19.00;70.38;101697.53;689654;28;1319;-45
2022/08/10 01:03:42;;;;;;;5.13;2.73;;;;;;;18.99;70.38;101703.72;688521;28;1139;-46
2022/08/10 01:04:03;;;;;;;3.92;2.50;;;;;;;18.99;70.74;101696.63;690030;28;4390;-44
2022/08/10 01:04:24;;;;;;;3.75;2.58;;;;;;;18.97;70.89;101703.78;692068;28;1148;-45
2022/08/10 01:04:45;;;;;;;4.03;2.55;;;;;;;18.94;70.69;101695.00;691940;28;1491;-44
2022/08/10 01:05:11;;;;;;;4.20;2.40;;;;;;;18.94;70.88;101693.25;691227;28;1277;-44
2022/08/10 01:05:34;;;;;;;4.80;2.70;;;;;;;18.93;71.19;101702.09;688742;28;1223;-45
2022/08/10 01:06:12;;;;;;;4.20;2.63;;;;;;;18.89;71.31;101695.97;689885;28;1076;-45
2022/08/10 01:06:50;;;;;;;4.28;2.63;;;;;;;18.85;71.44;101698.72;689322;28;1278;-44
2022/08/10 01:07:48;;;;;;;4.40;2.55;;;;;;;18.84;71.46;101696.97;688216;28;4354;-44
2022/08/10 01:08:18;;;;;;;5.22;2.60;;;;;;;18.78;71.62;101699.78;688986;28;1412;-44
2022/08/10 01:08:54;;;;;;;4.18;2.55;;;;;;;18.75;71.60;101691.88;689180;28;1135;-44
2022/08/10 01:09:42;;;;;;;3.78;2.58;;;;;;;18.77;71.44;101698.03;689534;28;1219;-45
2022/08/10 01:10:07;;;;;;;3.90;2.60;;;;;;;18.77;71.55;101695.38;689006;28;4382;-44
2022/08/10 01:10:42;;;;;;;4.18;2.50;;;;;;;18.76;71.60;101694.50;689633;28;1164;-45
2022/08/10 01:11:13;;;;;;;5.80;2.70;;;;;;;18.75;72.09;101698.06;688680;28;1217;-44
2022/08/10 01:11:48;;;;;;;5.93;2.60;;;;;;;18.72;72.14;101695.47;689617;28;1084;-44
2022/08/10 01:12:14;;;;;;;4.80;2.67;;;;;;;18.70;72.14;101695.50;689991;28;1132;-45
2022/08/10 01:12:53;;;;;;;4.97;2.65;;;;;;;18.68;73.43;101692.03;689449;28;1934;-45
2022/08/10 01:13:35;;;;;;;4.38;2.70;;;;;;;18.68;72.56;101699.09;689240;28;4933;-44
2022/08/10 01:14:12;;;;;;;4.63;2.88;;;;;;;18.65;72.44;101696.50;690302;28;1098;-44
2022/08/10 01:14:35;;;;;;;4.65;2.80;;;;;;;18.64;72.30;101700.09;690055;28;1456;-44
2022/08/10 01:15:17;;;;;;;3.90;2.50;;;;;;;18.64;72.39;101693.00;688654;28;1080;-45
2022/08/10 01:15:59;;;;;;;4.47;2.60;;;;;;;18.66;72.84;101698.25;688876;28;3616;-46
2022/08/10 01:16:31;;;;;;;4.68;2.80;;;;;;;18.64;73.16;101700.09;691307;28;5010;-45
2022/08/10 01:17:05;;;;;;;4.05;2.53;;;;;;;18.61;72.46;101698.38;691714;28;1397;-44
2022/08/10 01:17:42;;;;;;;4.75;2.60;;;;;;;18.58;72.36;101693.16;693001;28;1100;-44
2022/08/10 01:18:31;;;;;;;4.05;2.70;;;;;;;18.57;73.88;101691.41;689221;28;1057;-45
2022/08/10 01:19:03;;;;;;;4.20;2.50;;;;;;;18.60;72.85;101687.81;682570;28;1476;-44
2022/08/10 01:19:59;;;;;;;4.00;2.85;;;;;;;18.58;73.43;101693.16;681437;28;5909;-45
2022/08/10 01:20:28;;;;;;;4.45;2.70;;;;;;;18.55;73.36;101683.50;690158;28;1173;-44
2022/08/10 01:21:02;;;;;;;4.10;2.83;;;;;;;18.49;73.27;101685.38;688625;28;1413;-45
2022/08/10 01:21:41;;;;;;;5.63;2.72;;;;;;;18.46;73.24;101688.97;688937;28;1068;-44
2022/08/10 01:22:20;;;;;;;3.95;2.72;;;;;;;18.38;73.82;101694.41;686161;28;4500;-44
2022/08/10 01:23:24;;;;;;;4.15;2.70;;;;;;;18.40;73.04;101691.75;686839;28;1211;-44
2022/08/10 01:24:15;;;;;;;5.03;2.70;;;;;;;18.37;73.49;101692.69;687526;28;1274;-45
2022/08/10 01:24:45;;;;;;;4.38;2.55;;;;;;;18.37;73.29;101698.00;688762;28;1210;-44
2022/08/10 01:25:08;;;;;;;4.40;2.63;;;;;;;18.37;74.00;101692.69;687758;28;4287;-45
2022/08/10 01:26:02;;;;;;;5.05;2.80;;;;;;;18.37;73.68;101691.81;690196;28;1218;-44
2022/08/10 01:26:41;;;;;;;4.22;2.60;;;;;;;18.40;75.02;101701.47;690044;28;1202;-45
2022/08/10 01:27:17;;;;;;;5.03;2.65;;;;;;;18.37;74.03;101695.34;690038;28;1191;-45
2022/08/10 01:27:59;;;;;;;3.80;2.70;;;;;;;18.35;73.52;101693.63;688820;28;1089;-46
2022/08/10 01:28:49;;;;;;;4.47;2.80;;;;;;;18.33;73.45;101696.31;688729;28;4967;-44
2022/08/10 01:29:12;;;;;;;4.28;2.70;;;;;;;18.30;74.11;101693.69;690227;28;1346;-44
2022/08/10 01:29:56;;;;;;;4.10;2.70;;;;;;;18.25;74.58;101681.47;691964;28;1401;-45
2022/08/10 01:30:19;;;;;;;4.38;2.80;;;;;;;18.28;74.91;101686.72;691835;28;1265;-44
2022/08/10 01:30:44;;;;;;;4.20;2.70;;;;;;;18.26;74.71;101694.66;692668;28;1226;-46
2022/08/10 01:31:07;;;;;;;3.88;2.40;;;;;;;18.24;74.98;101692.97;691442;28;4566;-44
2022/08/10 01:31:33;;;;;;;4.40;2.60;;;;;;;18.23;74.42;101694.72;691718;28;1214;-44
2022/08/10 01:31:59;;;;;;;4.40;2.60;;;;;;;18.25;75.89;101689.41;691549;28;1537;-44
2022/08/10 01:32:36;;;;;;;5.55;2.50;;;;;;;18.23;75.84;101694.72;692498;28;1092;-44
2022/08/10 01:33:06;;;;;;;4.80;2.65;;;;;;;18.18;75.34;101693.97;690456;28;1218;-45
2022/08/10 01:33:41;;;;;;;6.00;2.75;;;;;;;18.16;75.43;101686.03;688968;28;1060;-45
2022/08/10 01:34:13;;;;;;;4.47;2.72;;;;;;;18.17;75.06;101690.44;688976;28;4503;-44
2022/08/10 01:34:48;;;;;;;4.38;2.80;;;;;;;18.11;75.86;101695.88;688846;28;1401;-46
2022/08/10 01:35:20;;;;;;;4.75;2.88;;;;;;;18.11;75.40;101693.22;692056;28;1238;-45
2022/08/10 01:35:51;;;;;;;3.67;2.55;;;;;;;18.08;75.48;101689.75;691320;28;1017;-44
2022/08/10 01:36:17;;;;;;;4.93;2.72;;;;;;;18.06;75.97;101688.94;692147;28;1199;-44
2022/08/10 01:36:45;;;;;;;6.03;2.72;;;;;;;18.03;76.08;101692.50;690623;28;1138;-44
2022/08/10 01:37:10;;;;;;;5.10;2.80;;;;;;;18.07;75.01;101688.91;689502;28;5152;-45
2022/08/10 01:37:35;;;;;;;4.47;2.70;;;;;;;18.04;76.16;101689.81;688835;28;1169;-44
2022/08/10 01:38:09;;;;;;;4.38;2.80;;;;;;;18.05;75.43;101693.31;689725;28;1254;-45
2022/08/10 01:38:38;;;;;;;4.30;2.88;;;;;;;18.08;77.09;101689.75;688907;28;1369;-44
2022/08/10 01:39:02;;;;;;;4.75;2.80;;;;;;;18.09;76.33;101691.50;689765;28;1310;-45
2022/08/10 01:39:25;;;;;;;4.57;2.85;;;;;;;18.08;75.82;101687.13;689651;28;1116;-44
2022/08/10 01:39:52;;;;;;;4.70;2.90;;;;;;;18.06;76.04;101688.94;688961;28;1060;-45
2022/08/10 01:40:15;;;;;;;4.72;2.80;;;;;;;18.06;75.72;101688.94;689263;28;4928;-46
2022/08/10 01:40:43;;;;;;;5.05;2.90;;;;;;;18.03;76.40;101685.44;688229;28;1384;-46
2022/08/10 01:41:07;;;;;;;4.95;2.80;;;;;;;18.02;76.43;101686.31;685866;28;1221;-45
2022/08/10 01:41:35;;;;;;;4.57;2.70;;;;;;;18.00;76.79;101689.94;688633;28;1157;-44
2022/08/10 01:42:00;;;;;;;4.57;2.80;;;;;;;18.00;76.23;101685.50;688813;28;5015;-43
2022/08/10 01:42:23;;;;;;;6.00;2.90;;;;;;;18.02;76.60;101694.25;689989;28;1283;-45
2022/08/10 01:42:45;;;;;;;6.45;3.10;;;;;;;18.03;76.07;101688.06;689055;28;1103;-43
2022/08/10 01:43:08;;;;;;;6.35;2.88;;;;;;;18.04;76.07;101686.28;688277;28;4539;-44
2022/08/10 01:43:32;;;;;;;5.03;2.63;;;;;;;18.03;76.28;101681.91;689121;28;1186;-44
2022/08/10 01:44:01;;;;;;;4.20;2.70;;;;;;;18.01;76.20;101686.34;692467;28;1270;-47
2022/08/10 01:44:30;;;;;;;4.63;2.63;;;;;;;17.99;76.29;101689.03;692526;28;1206;-44
2022/08/10 01:44:55;;;;;;;4.18;2.75;;;;;;;17.99;76.51;101689.03;691892;28;1757;-44
2022/08/10 01:45:18;;;;;;;4.10;2.60;;;;;;;17.98;76.52;101692.56;691107;28;1025;-44
2022/08/10 01:45:43;;;;;;;4.85;2.80;;;;;;;17.98;75.93;101691.72;691231;28;1147;-44
2022/08/10 01:46:06;;;;;;;4.00;2.72;;;;;;;17.98;75.94;101684.63;688013;28;4315;-45
2022/08/10 01:46:29;;;;;;;4.20;2.80;;;;;;;17.99;76.23;101688.16;689556;28;1559;-44
2022/08/10 01:46:54;;;;;;;5.40;2.90;;;;;;;17.96;75.94;101689.09;690730;28;1123;-45
2022/08/10 01:48:47;;;;;;;5.30;3.00;;;;;;;17.87;76.42;101691.88;688430;28;1206;-44
2022/08/10 01:49:11;;;;;;;4.38;2.60;;;;;;;17.85;77.06;101688.41;690815;28;4377;-45
2022/08/10 01:49:34;;;;;;;3.97;2.60;;;;;;;17.85;77.01;101694.56;691348;28;1276;-44
2022/08/10 01:50:16;;;;;;;4.20;2.50;;;;;;;17.87;76.78;101698.06;689966;28;2112;-46
2022/08/10 01:50:44;;;;;;;5.43;2.80;;;;;;;17.91;75.95;101688.31;688893;28;1173;-48
2022/08/10 01:51:31;;;;;;;5.68;3.00;;;;;;;17.90;76.65;101694.47;689404;28;1223;-43
2022/08/10 01:51:55;;;;;;;4.35;2.60;;;;;;;17.91;77.75;101693.59;688671;28;1392;-43
2022/08/10 01:52:19;;;;;;;5.05;2.70;;;;;;;17.88;76.64;101689.19;689632;28;5063;-44
2022/08/10 01:52:42;;;;;;;5.32;3.00;;;;;;;17.87;76.83;101694.53;690398;28;2026;-44
2022/08/10 01:53:08;;;;;;;4.90;2.90;;;;;;;17.86;77.36;101698.94;689170;28;1504;-44
2022/08/10 01:53:35;;;;;;;4.68;2.90;;;;;;;17.85;76.81;101698.97;688599;28;1151;-43
2022/08/10 01:54:02;;;;;;;4.00;2.65;;;;;;;17.84;76.81;101695.44;689447;28;1370;-44
2022/08/10 01:54:25;;;;;;;4.88;3.00;;;;;;;17.83;76.99;101698.13;689426;28;1386;-44
2022/08/10 01:54:48;;;;;;;4.30;2.78;;;;;;;17.83;77.23;101698.13;688453;28;1302;-44
2022/08/10 01:55:12;;;;;;;3.97;2.85;;;;;;;17.81;76.95;101697.28;688019;28;4347;-44
2022/08/10 01:55:34;;;;;;;6.18;3.00;;;;;;;17.80;77.08;101696.41;689289;28;1409;-44
2022/08/10 01:55:56;;;;;;;4.53;2.90;;;;;;;17.82;76.81;101701.66;690499;28;1200;-44
2022/08/10 01:56:18;;;;;;;4.03;2.83;;;;;;;17.81;76.79;101703.44;691394;28;1136;-46
2022/08/10 01:56:42;;;;;;;4.35;2.83;;;;;;;17.81;76.85;101703.44;688166;28;1424;-43
2022/08/10 01:57:04;;;;;;;5.07;2.97;;;;;;;17.80;77.05;101699.06;687060;28;1258;-47